Time;durP1;ratioP1;P1;durP2;ratioP2;P2;SDS_P1;SDS_P2;PMS_P1;PMS_P2;Temp;Humidity;BMP_temperature;BMP_pressure;BME280_temperature;BME280_humidity;BME280_pressure;Samples;Min_cycle;Max_cycle;Signal;HPM_P1;HPM_P2
2022/07/07 00:01:44;;;;;;;8.48;6.43;;;16.90;99.90;;;;;;4993265;28;20041;-71
2022/07/07 00:04:10;;;;;;;11.75;5.03;;;16.90;99.90;;;;;;4993260;28;20081;-71
2022/07/07 00:06:36;;;;;;;11.00;5.82;;;16.90;99.90;;;;;;4993068;28;20069;-72
2022/07/07 00:09:03;;;;;;;10.02;4.82;;;16.90;99.90;;;;;;5008354;28;20050;-73
2022/07/07 00:11:29;;;;;;;12.27;5.47;;;16.80;99.90;;;;;;5024636;28;20072;-72
2022/07/07 00:13:55;;;;;;;12.43;5.60;;;16.90;99.90;;;;;;4992242;28;20050;-73
2022/07/07 00:16:22;;;;;;;10.10;5.53;;;16.80;99.90;;;;;;4989886;28;20366;-73
2022/07/07 00:18:48;;;;;;;8.05;4.10;;;16.80;99.90;;;;;;4993192;28;20101;-73
2022/07/07 00:21:14;;;;;;;6.57;4.28;;;16.80;99.90;;;;;;4993220;28;20043;-73
2022/07/07 00:23:40;;;;;;;9.82;4.50;;;16.80;99.90;;;;;;4991911;28;20121;-73
2022/07/07 00:26:06;;;;;;;9.23;4.53;;;16.80;99.90;;;;;;4992854;28;20488;-74
2022/07/07 00:28:32;;;;;;;6.05;3.85;;;16.90;99.90;;;;;;4992098;28;20047;-72
2022/07/07 00:30:58;;;;;;;8.73;3.47;;;16.80;99.90;;;;;;4991747;28;20101;-72
2022/07/07 00:33:24;;;;;;;8.10;3.22;;;16.80;99.90;;;;;;4991968;28;20043;-70
2022/07/07 00:35:51;;;;;;;7.80;3.00;;;16.80;99.90;;;;;;4993037;28;20038;-73
2022/07/07 00:38:17;;;;;;;7.65;2.92;;;16.80;99.90;;;;;;4992916;28;20089;-72
2022/07/07 00:40:52;;;;;;;9.60;3.40;;;16.80;99.90;;;;;;4992858;28;20043;-73
2022/07/07 00:43:17;;;;;;;9.15;2.70;;;16.80;99.90;;;;;;4975494;28;20042;-68
2022/07/07 00:45:51;;;;;;;6.65;3.08;;;16.70;99.90;;;;;;4989378;28;20041;-68
2022/07/07 00:48:20;;;;;;;8.07;2.95;;;16.70;99.90;;;;;;4991638;28;20635;-68
2022/07/07 00:50:48;;;;;;;9.02;3.28;;;16.70;99.90;;;;;;4994505;28;20034;-68
2022/07/07 00:53:15;;;;;;;6.18;2.85;;;16.60;99.90;;;;;;4995155;28;20042;-68
2022/07/07 00:55:41;;;;;;;7.47;3.33;;;16.50;99.90;;;;;;4995006;28;20038;-69
2022/07/07 00:58:07;;;;;;;6.43;3.22;;;16.50;99.90;;;;;;4996500;28;20423;-68
2022/07/07 01:00:33;;;;;;;7.15;3.22;;;16.40;99.90;;;;;;4996387;28;20042;-70
2022/07/07 01:03:00;;;;;;;8.77;3.72;;;16.40;99.90;;;;;;4996064;28;20574;-68
2022/07/07 01:05:26;;;;;;;7.80;3.75;;;16.40;99.90;;;;;;4994783;28;20073;-69
2022/07/07 01:07:53;;;;;;;10.52;4.88;;;16.30;99.90;;;;;;4994914;28;20049;-69
2022/07/07 01:10:19;;;;;;;10.75;4.28;;;16.30;99.90;;;;;;4989085;28;20048;-68
2022/07/07 01:12:45;;;;;;;6.80;4.30;;;16.30;99.90;;;;;;5014447;28;20048;-68
2022/07/07 01:15:13;;;;;;;5.40;3.90;;;16.30;99.90;;;;;;5013007;28;20038;-68
2022/07/07 01:17:40;;;;;;;10.48;5.13;;;16.30;99.90;;;;;;5014064;28;20615;-68
2022/07/07 01:20:08;;;;;;;14.15;5.15;;;16.30;99.90;;;;;;5014533;28;20046;-67
2022/07/07 01:22:36;;;;;;;7.72;6.07;;;16.30;99.90;;;;;;5030613;28;20056;-68
2022/07/07 01:25:07;;;;;;;6.80;5.10;;;16.30;99.90;;;;;;5014258;28;20048;-68
2022/07/07 01:27:33;;;;;;;13.63;5.00;;;16.30;99.90;;;;;;5014036;28;20507;-68
2022/07/07 01:29:59;;;;;;;14.98;6.03;;;16.30;99.90;;;;;;5015206;28;20049;-69
2022/07/07 01:32:26;;;;;;;11.63;5.80;;;16.20;99.90;;;;;;4997673;28;20072;-68
2022/07/07 01:34:53;;;;;;;11.82;6.22;;;16.20;99.90;;;;;;5013907;28;20045;-69
2022/07/07 01:37:24;;;;;;;11.70;5.35;;;16.20;99.90;;;;;;5013890;28;20088;-68
2022/07/07 01:39:51;;;;;;;11.60;5.70;;;16.20;99.90;;;;;;5013853;28;20053;-67
2022/07/07 01:42:18;;;;;;;6.53;4.70;;;16.20;99.90;;;;;;5014227;28;20042;-71
2022/07/07 01:44:44;;;;;;;8.38;4.95;;;16.20;99.90;;;;;;5014081;28;20038;-69
2022/07/07 01:47:11;;;;;;;11.30;5.97;;;16.20;99.90;;;;;;5011509;28;20046;-69
2022/07/07 01:49:38;;;;;;;10.32;5.00;;;16.20;99.90;;;;;;5013665;28;20519;-68
2022/07/07 01:52:05;;;;;;;8.80;5.45;;;16.20;99.90;;;;;;5013529;28;20599;-67
2022/07/07 01:54:35;;;;;;;6.28;5.00;;;16.10;99.90;;;;;;5013695;28;20049;-69
2022/07/07 01:57:02;;;;;;;;;;;16.20;99.90;;;;;;5013904;28;20046;-70
2022/07/07 01:59:28;;;;;;;8.30;5.63;;;16.10;99.90;;;;;;5013836;28;19918;-70
2022/07/07 02:01:54;;;;;;;11.75;5.18;;;16.20;99.90;;;;;;5013302;28;20048;-70
2022/07/07 02:04:20;;;;;;;13.18;5.53;;;16.20;99.90;;;;;;5013317;28;20137;-69
2022/07/07 02:06:46;;;;;;;15.13;6.88;;;16.20;99.90;;;;;;5014858;28;20473;-70
2022/07/07 02:09:12;;;;;;;10.05;5.35;;;16.20;99.90;;;;;;5013289;28;20128;-70
2022/07/07 02:11:38;;;;;;;10.40;5.47;;;16.20;99.90;;;;;;5013317;28;20132;-71
2022/07/07 02:14:04;;;;;;;11.73;5.50;;;16.20;99.90;;;;;;5013484;28;20049;-70
2022/07/07 02:16:31;;;;;;;12.63;5.93;;;16.20;99.90;;;;;;5012095;28;20041;-70
2022/07/07 02:18:59;;;;;;;13.55;6.88;;;16.20;99.90;;;;;;5013195;28;20078;-68
2022/07/07 02:21:26;;;;;;;10.57;5.60;;;16.20;99.90;;;;;;5013052;28;20042;-70
2022/07/07 02:23:54;;;;;;;12.00;5.55;;;16.30;99.90;;;;;;5013060;28;20045;-69
2022/07/07 02:26:21;;;;;;;9.52;4.57;;;16.30;99.90;;;;;;5012973;28;20041;-71
2022/07/07 02:28:47;;;;;;;10.15;3.83;;;16.30;99.90;;;;;;5013285;28;20046;-71
2022/07/07 02:31:13;;;;;;;10.48;3.92;;;16.30;99.90;;;;;;5013278;28;20033;-69
2022/07/07 02:33:39;;;;;;;11.00;3.45;;;16.30;99.90;;;;;;5014338;28;20069;-70
2022/07/07 02:36:06;;;;;;;12.57;4.28;;;16.20;99.90;;;;;;5013065;28;20084;-70
2022/07/07 02:38:32;;;;;;;10.50;2.90;;;16.20;99.90;;;;;;5012789;28;20041;-70
2022/07/07 02:40:59;;;;;;;11.65;2.80;;;16.20;99.90;;;;;;5014151;28;20112;-68
2022/07/07 02:43:26;;;;;;;9.48;2.70;;;16.20;99.90;;;;;;5014001;28;20522;-71
2022/07/07 02:45:52;;;;;;;11.18;3.10;;;16.10;99.90;;;;;;4994072;28;20180;-72
2022/07/07 02:48:20;;;;;;;6.82;2.60;;;16.10;99.90;;;;;;5012838;28;20112;-72
2022/07/07 02:50:46;;;;;;;12.98;3.20;;;16.10;99.90;;;;;;5013000;28;20389;-71
2022/07/07 02:53:13;;;;;;;9.13;2.47;;;16.10;99.90;;;;;;5012586;28;20048;-73
2022/07/07 02:55:39;;;;;;;12.13;2.97;;;16.10;99.90;;;;;;5013933;28;20403;-73
2022/07/07 02:58:06;;;;;;;11.98;3.13;;;16.10;99.90;;;;;;4996063;28;20465;-70
2022/07/07 03:00:33;;;;;;;20.25;4.05;;;16.00;99.90;;;;;;5012313;28;20053;-72
2022/07/07 03:03:04;;;;;;;11.52;3.63;;;16.00;99.90;;;;;;5012163;28;20062;-72
2022/07/07 03:05:30;;;;;;;11.05;3.13;;;16.00;99.90;;;;;;5013629;28;20052;-72
2022/07/07 03:07:58;;;;;;;13.18;3.90;;;16.00;99.90;;;;;;5012521;28;20112;-71
2022/07/07 03:10:24;;;;;;;15.45;4.45;;;16.00;99.90;;;;;;4984673;28;20048;-69
2022/07/07 03:12:50;;;;;;;12.80;3.60;;;16.00;99.90;;;;;;4992158;28;20042;-69
2022/07/07 03:15:16;;;;;;;15.75;3.38;;;16.00;99.90;;;;;;4991897;28;20042;-69
2022/07/07 03:17:43;;;;;;;17.60;4.55;;;16.00;99.90;;;;;;4992371;28;20101;-69
2022/07/07 03:20:11;;;;;;;9.48;3.70;;;16.00;99.90;;;;;;4993583;28;20038;-69
2022/07/07 03:22:37;;;;;;;13.40;3.55;;;15.90;99.90;;;;;;4993728;28;20101;-69
2022/07/07 03:25:04;;;;;;;12.68;3.25;;;15.90;99.90;;;;;;4992615;28;20042;-71
2022/07/07 03:27:30;;;;;;;9.07;3.03;;;15.90;99.90;;;;;;4992243;28;20046;-68
2022/07/07 03:29:56;;;;;;;15.25;2.80;;;15.90;99.90;;;;;;4992414;28;20092;-69
2022/07/07 03:32:22;;;;;;;18.25;2.90;;;15.90;99.90;;;;;;4993469;28;20054;-72
2022/07/07 03:34:48;;;;;;;12.18;3.33;;;15.90;99.90;;;;;;4992311;28;20046;-68
2022/07/07 03:37:14;;;;;;;8.20;2.33;;;15.90;99.90;;;;;;4992280;28;20042;-72
2022/07/07 03:39:40;;;;;;;12.63;2.42;;;15.90;99.90;;;;;;4993496;28;20061;-67
2022/07/07 03:42:06;;;;;;;8.18;1.83;;;15.90;99.90;;;;;;4993367;28;20516;-72
2022/07/07 03:44:32;;;;;;;10.10;2.00;;;15.80;99.90;;;;;;4992525;28;20042;-71
2022/07/07 03:46:58;;;;;;;11.23;2.10;;;15.80;99.90;;;;;;4991425;28;20575;-69
2022/07/07 03:49:23;;;;;;;13.73;2.63;;;15.70;99.90;;;;;;4992381;28;20132;-72
2022/07/07 03:51:49;;;;;;;11.18;2.03;;;15.70;99.90;;;;;;4993485;28;20508;-69
2022/07/07 03:54:15;;;;;;;10.38;1.77;;;15.70;99.90;;;;;;4992734;28;20108;-69
2022/07/07 03:56:41;;;;;;;7.78;1.70;;;15.60;99.90;;;;;;4991048;28;20042;-72
2022/07/07 03:59:07;;;;;;;10.23;1.88;;;15.60;99.90;;;;;;4992524;28;20064;-70
2022/07/07 04:01:33;;;;;;;7.28;1.83;;;15.60;99.90;;;;;;4992460;28;20093;-70
2022/07/07 04:03:59;;;;;;;10.80;1.83;;;15.50;99.90;;;;;;4990968;28;20149;-68
2022/07/07 04:06:25;;;;;;;11.57;1.98;;;15.50;99.90;;;;;;4992527;28;20121;-69
2022/07/07 04:08:51;;;;;;;13.50;2.25;;;15.40;99.90;;;;;;4991005;28;20385;-69
2022/07/07 04:11:17;;;;;;;9.60;2.08;;;15.40;99.90;;;;;;5010297;28;20041;-70
2022/07/07 04:13:43;;;;;;;8.95;2.00;;;15.40;99.90;;;;;;5012012;28;20038;-69
2022/07/07 04:16:09;;;;;;;7.93;1.80;;;15.30;99.90;;;;;;5008404;28;20136;-69
2022/07/07 04:18:35;;;;;;;15.20;2.75;;;15.30;99.90;;;;;;4994498;28;20118;-70
2022/07/07 04:21:01;;;;;;;8.63;2.40;;;15.30;99.90;;;;;;5010618;28;20311;-68
2022/07/07 04:23:27;;;;;;;8.05;2.92;;;15.30;99.90;;;;;;5010530;28;20073;-73
2022/07/07 04:25:53;;;;;;;10.00;2.40;;;15.30;99.90;;;;;;5014948;28;20065;-65
2022/07/07 04:28:19;;;;;;;8.82;2.28;;;15.30;99.90;;;;;;5014287;28;20042;-70
2022/07/07 04:30:45;;;;;;;6.32;1.73;;;15.30;99.90;;;;;;5014727;28;20046;-66
2022/07/07 04:33:11;;;;;;;5.22;1.60;;;15.20;99.90;;;;;;5015615;28;20387;-69
2022/07/07 04:35:37;;;;;;;11.73;2.10;;;15.20;99.90;;;;;;5015481;28;20044;-70
2022/07/07 04:38:03;;;;;;;9.02;2.10;;;15.10;99.90;;;;;;5014065;28;20042;-69
2022/07/07 04:40:29;;;;;;;6.35;1.77;;;15.10;99.90;;;;;;5015386;28;20041;-69
2022/07/07 04:42:55;;;;;;;11.18;1.90;;;15.10;99.90;;;;;;5014282;28;20377;-68
2022/07/07 04:45:21;;;;;;;9.32;2.00;;;15.00;99.90;;;;;;5013153;28;20044;-69
2022/07/07 04:47:47;;;;;;;8.23;1.55;;;15.00;99.90;;;;;;4997668;28;20056;-69
2022/07/07 04:50:13;;;;;;;5.43;1.45;;;15.00;99.90;;;;;;5013927;28;20042;-69
2022/07/07 04:52:39;;;;;;;11.23;2.10;;;15.00;99.90;;;;;;5015232;28;20145;-71
2022/07/07 04:55:06;;;;;;;13.48;2.30;;;15.00;99.90;;;;;;5013839;28;20049;-69
2022/07/07 04:57:32;;;;;;;8.65;1.67;;;15.00;99.90;;;;;;5013714;28;20546;-70
2022/07/07 04:59:59;;;;;;;10.32;2.30;;;15.10;99.90;;;;;;5014845;28;20535;-70
2022/07/07 05:02:25;;;;;;;7.50;1.95;;;15.10;99.90;;;;;;5014769;28;20080;-70
2022/07/07 05:04:51;;;;;;;10.85;2.28;;;15.10;99.90;;;;;;5013526;28;20459;-72
2022/07/07 05:07:20;;;;;;;11.88;2.67;;;15.20;99.90;;;;;;5013943;28;20045;-71
2022/07/07 05:09:47;;;;;;;8.32;2.72;;;15.30;99.90;;;;;;4991231;28;20042;-72
2022/07/07 05:12:13;;;;;;;12.35;2.70;;;15.40;99.90;;;;;;4995466;28;20117;-69
2022/07/07 05:14:39;;;;;;;6.10;2.38;;;15.50;99.90;;;;;;4977874;28;20185;-73
2022/07/07 05:17:04;;;;;;;9.60;2.45;;;15.50;99.90;;;;;;4991402;28;20572;-69
2022/07/07 05:19:31;;;;;;;8.85;2.25;;;15.60;99.90;;;;;;4995002;28;20049;-69
2022/07/07 05:21:56;;;;;;;11.40;2.40;;;15.80;99.90;;;;;;4995017;28;20034;-69
2022/07/07 05:24:22;;;;;;;10.85;2.08;;;15.90;99.90;;;;;;4994726;28;20058;-68
2022/07/07 05:26:48;;;;;;;12.27;2.92;;;16.00;99.90;;;;;;4993773;28;20046;-69
2022/07/07 05:29:14;;;;;;;15.18;2.50;;;16.10;99.90;;;;;;4993581;28;20042;-68
2022/07/07 05:31:40;;;;;;;11.30;2.33;;;16.10;99.90;;;;;;4993637;28;20049;-70
2022/07/07 05:34:06;;;;;;;8.23;1.67;;;16.10;99.90;;;;;;4993515;28;20046;-71
2022/07/07 05:36:33;;;;;;;15.85;2.75;;;16.00;99.90;;;;;;4994314;28;20042;-69
2022/07/07 05:38:59;;;;;;;12.10;2.50;;;15.90;99.90;;;;;;4993405;28;20539;-70
2022/07/07 05:41:25;;;;;;;11.35;2.63;;;15.90;99.90;;;;;;4993421;28;20050;-71
2022/07/07 05:43:51;;;;;;;10.70;2.15;;;15.90;99.90;;;;;;4993622;28;20050;-67
2022/07/07 05:46:17;;;;;;;11.63;2.65;;;15.80;99.90;;;;;;4992380;28;20516;-69
2022/07/07 05:48:42;;;;;;;8.63;2.22;;;15.80;99.90;;;;;;4994740;28;20042;-70
2022/07/07 05:51:08;;;;;;;10.05;2.55;;;15.70;99.90;;;;;;4977407;28;20042;-72
2022/07/07 05:53:34;;;;;;;10.82;2.60;;;15.70;99.90;;;;;;4993357;28;20052;-71
2022/07/07 05:56:00;;;;;;;10.65;2.35;;;15.60;99.90;;;;;;4993117;28;20046;-68
2022/07/07 05:58:26;;;;;;;11.80;2.25;;;15.60;99.90;;;;;;4993406;28;20157;-71
2022/07/07 06:00:52;;;;;;;11.73;2.85;;;15.70;99.90;;;;;;4993272;28;20472;-71
2022/07/07 06:03:17;;;;;;;9.18;2.63;;;15.70;99.90;;;;;;4976703;28;20505;-70
2022/07/07 06:05:43;;;;;;;10.15;1.95;;;15.80;99.90;;;;;;4992925;28;20042;-70
2022/07/07 06:08:09;;;;;;;9.80;1.90;;;15.80;99.90;;;;;;4992920;28;20065;-72
2022/07/07 06:10:36;;;;;;;10.88;2.28;;;15.80;99.90;;;;;;5005282;28;20049;-71
2022/07/07 06:13:02;;;;;;;7.28;1.52;;;15.80;99.90;;;;;;5012482;28;20053;-72
2022/07/07 06:15:32;;;;;;;8.32;1.30;;;15.80;99.90;;;;;;5009870;28;20042;-71
2022/07/07 06:18:00;;;;;;;9.45;1.58;;;15.80;99.90;;;;;;5012312;28;20054;-74
2022/07/07 06:20:26;;;;;;;11.05;3.40;;;15.90;99.90;;;;;;5012222;28;20052;-68
2022/07/07 06:22:52;;;;;;;9.10;2.25;;;15.90;99.90;;;;;;5012457;28;20042;-68
2022/07/07 06:25:20;;;;;;;8.05;1.52;;;15.90;99.90;;;;;;5013573;28;20045;-69
2022/07/07 06:27:46;;;;;;;8.93;2.05;;;15.90;99.90;;;;;;5012458;28;20559;-69
2022/07/07 06:30:12;;;;;;;10.85;1.98;;;15.90;99.90;;;;;;5012621;28;20116;-67
2022/07/07 06:32:37;;;;;;;12.60;1.75;;;16.00;99.90;;;;;;5012896;28;20034;-69
2022/07/07 06:35:05;;;;;;;9.65;1.23;;;16.00;99.90;;;;;;5013751;28;20511;-69
2022/07/07 06:37:31;;;;;;;8.52;1.50;;;16.00;99.90;;;;;;5012607;28;20049;-69
2022/07/07 06:39:56;;;;;;;8.45;1.50;;;16.00;99.90;;;;;;5014213;28;20415;-70
2022/07/07 06:42:22;;;;;;;4.68;1.05;;;16.10;99.90;;;;;;4996121;28;20434;-71
2022/07/07 06:44:48;;;;;;;6.13;1.13;;;16.30;99.90;;;;;;4996406;28;20042;-71
2022/07/07 06:47:14;;;;;;;7.05;1.10;;;16.50;99.90;;;;;;5010030;28;20115;-71
2022/07/07 06:49:40;;;;;;;5.32;1.20;;;16.70;99.90;;;;;;5012982;28;20048;-71
2022/07/07 06:52:07;;;;;;;7.47;1.27;;;16.70;99.90;;;;;;5012925;28;20459;-70
2022/07/07 06:54:32;;;;;;;5.55;0.90;;;16.60;99.90;;;;;;5011619;28;20097;-69
2022/07/07 06:56:58;;;;;;;6.63;0.90;;;16.50;99.90;;;;;;5011821;28;20073;-69
2022/07/07 06:59:24;;;;;;;3.22;0.65;;;16.30;99.90;;;;;;5011482;28;20038;-69
2022/07/07 07:01:50;;;;;;;6.93;1.30;;;16.30;99.90;;;;;;5011560;28;20038;-70
2022/07/07 07:04:16;;;;;;;3.85;0.70;;;16.50;99.90;;;;;;5011317;28;20054;-68
2022/07/07 07:06:42;;;;;;;6.38;1.10;;;16.70;99.90;;;;;;4995048;28;20042;-73
2022/07/07 07:09:09;;;;;;;8.18;1.33;;;16.70;99.90;;;;;;5012065;28;20045;-68
2022/07/07 07:11:35;;;;;;;4.32;0.80;;;16.70;99.90;;;;;;4991922;28;20045;-69
2022/07/07 07:14:02;;;;;;;3.75;1.15;;;16.80;99.90;;;;;;4975462;28;20108;-73
2022/07/07 07:16:28;;;;;;;4.25;0.70;;;16.70;99.90;;;;;;4989412;28;20578;-66
2022/07/07 07:18:54;;;;;;;4.05;0.93;;;16.60;99.90;;;;;;5008331;28;20033;-65
2022/07/07 07:21:20;;;;;;;3.55;0.70;;;16.40;99.90;;;;;;4995245;28;20044;-71
2022/07/07 07:23:46;;;;;;;4.32;0.90;;;16.30;99.90;;;;;;5011798;28;20131;-68
2022/07/07 07:26:12;;;;;;;7.13;1.30;;;16.20;99.90;;;;;;5012118;28;20048;-62
2022/07/07 07:28:38;;;;;;;3.97;1.10;;;16.30;99.90;;;;;;5013218;28;20125;-62
2022/07/07 07:31:04;;;;;;;4.10;0.88;;;16.40;99.90;;;;;;5018672;28;20052;-61
2022/07/07 07:33:31;;;;;;;5.10;0.95;;;16.60;99.90;;;;;;5010413;28;20562;-61
2022/07/07 07:36:00;;;;;;;6.53;1.30;;;16.90;99.90;;;;;;5011655;28;20124;-62
2022/07/07 07:38:26;;;;;;;5.15;1.17;;;17.30;99.90;;;;;;5018275;28;20116;-62
2022/07/07 07:40:51;;;;;;;7.55;1.30;;;17.60;99.90;;;;;;5010181;28;20125;-62
2022/07/07 07:43:17;;;;;;;6.97;1.38;;;17.60;99.90;;;;;;5011743;28;20103;-61
2022/07/07 07:45:43;;;;;;;6.90;1.27;;;17.60;99.90;;;;;;5008764;28;20057;-61
2022/07/07 07:48:09;;;;;;;9.75;1.58;;;17.50;99.90;;;;;;5012001;28;20064;-61
2022/07/07 07:50:35;;;;;;;6.93;1.85;;;17.40;99.90;;;;;;5010395;28;20130;-61
2022/07/07 07:53:04;;;;;;;6.72;2.20;;;17.20;99.90;;;;;;4994641;28;20084;-61
2022/07/07 07:55:31;;;;;;;5.93;1.70;;;17.00;99.90;;;;;;5011172;28;20096;-61
2022/07/07 07:57:56;;;;;;;9.07;2.42;;;17.00;99.90;;;;;;5011899;28;20046;-61
2022/07/07 08:00:23;;;;;;;7.70;1.70;;;17.00;99.90;;;;;;5018049;28;20038;-61
2022/07/07 08:02:49;;;;;;;6.28;1.58;;;16.90;99.90;;;;;;5018559;28;20124;-61
2022/07/07 08:05:16;;;;;;;4.93;0.82;;;16.60;99.90;;;;;;5017599;28;20046;-61
2022/07/07 08:07:43;;;;;;;4.60;0.90;;;16.40;99.90;;;;;;5002538;28;20042;-61
2022/07/07 08:10:15;;;;;;;4.38;0.88;;;16.10;99.90;;;;;;5028798;28;20041;-60
2022/07/07 08:12:42;;;;;;;4.82;0.82;;;16.00;99.90;;;;;;5025882;28;20041;-61
2022/07/07 08:15:09;;;;;;;3.03;0.93;;;16.00;99.90;;;;;;5037748;28;20120;-60
2022/07/07 08:17:35;;;;;;;5.55;1.30;;;16.20;99.90;;;;;;5036683;28;20033;-61
2022/07/07 08:20:00;;;;;;;7.15;1.75;;;16.40;99.90;;;;;;5037730;28;20079;-61
2022/07/07 08:22:26;;;;;;;6.30;1.27;;;16.80;99.90;;;;;;5037647;28;20090;-60
2022/07/07 08:24:53;;;;;;;5.30;1.20;;;17.10;99.90;;;;;;5029493;28;20487;-60
2022/07/07 08:27:19;;;;;;;3.88;1.00;;;17.30;99.90;;;;;;5019134;28;20117;-61
2022/07/07 08:29:45;;;;;;;4.32;0.85;;;17.70;99.90;;;;;;5017352;28;20045;-60
2022/07/07 08:32:12;;;;;;;5.50;1.40;;;18.00;99.90;;;;;;5017159;28;20065;-61
2022/07/07 08:34:38;;;;;;;6.13;1.10;;;18.00;99.90;;;;;;5017475;28;20088;-61
2022/07/07 08:37:05;;;;;;;6.47;1.50;;;17.90;99.90;;;;;;5017065;28;20630;-61
2022/07/07 08:39:32;;;;;;;6.78;1.25;;;17.60;99.90;;;;;;5018408;28;20402;-61
2022/07/07 08:41:58;;;;;;;4.82;1.70;;;17.30;99.90;;;;;;5000759;28;20037;-59
2022/07/07 08:44:25;;;;;;;4.75;1.48;;;17.10;99.90;;;;;;5018278;28;20100;-60
2022/07/07 08:46:52;;;;;;;8.35;1.63;;;17.20;99.90;;;;;;5014371;28;20038;-60
2022/07/07 08:49:19;;;;;;;6.80;1.55;;;17.50;99.90;;;;;;5018129;28;20081;-60
2022/07/07 08:51:45;;;;;;;8.23;1.88;;;18.00;99.90;;;;;;5018247;28;20073;-60
2022/07/07 08:54:14;;;;;;;6.60;1.15;;;18.10;99.90;;;;;;5017105;28;20136;-61
2022/07/07 08:56:42;;;;;;;7.75;1.63;;;18.00;99.90;;;;;;5018528;28;20042;-60
2022/07/07 08:59:09;;;;;;;7.22;1.60;;;17.80;99.90;;;;;;5017609;28;20053;-60
2022/07/07 09:01:36;;;;;;;4.20;0.95;;;17.50;99.90;;;;;;5018877;28;20032;-61
2022/07/07 09:04:03;;;;;;;8.90;1.83;;;17.40;99.90;;;;;;5001313;28;20193;-60
2022/07/07 09:06:30;;;;;;;10.40;1.90;;;17.20;99.90;;;;;;5017748;28;20133;-60
2022/07/07 09:08:56;;;;;;;9.90;1.80;;;17.20;99.90;;;;;;5019033;28;20046;-60
2022/07/07 09:11:27;;;;;;;6.30;1.63;;;17.20;99.90;;;;;;4995162;28;20077;-61
2022/07/07 09:14:15;;;;;;;5.18;1.60;;;17.20;99.90;;;;;;4984818;28;20077;-61
2022/07/07 09:16:41;;;;;;;8.20;1.80;;;17.10;99.90;;;;;;5031354;28;20403;-62
2022/07/07 09:19:25;;;;;;;8.90;1.65;;;17.00;99.90;;;;;;5033772;28;20041;-61
2022/07/07 09:21:51;;;;;;;7.97;1.98;;;17.00;99.90;;;;;;5035162;28;20040;-61
2022/07/07 09:24:18;;;;;;;9.50;2.60;;;17.10;99.90;;;;;;5034029;28;20041;-60
2022/07/07 09:26:47;;;;;;;5.90;1.77;;;17.20;99.90;;;;;;5035321;28;20045;-60
2022/07/07 09:29:18;;;;;;;8.20;1.63;;;17.20;99.90;;;;;;5033867;28;20088;-61
2022/07/07 09:31:52;;;;;;;6.38;1.38;;;17.20;99.90;;;;;;5033952;28;20081;-60
2022/07/07 09:34:19;;;;;;;5.50;1.73;;;17.20;99.90;;;;;;5034139;28;20080;-61
2022/07/07 09:39:59;;;;;;;5.82;1.75;;;17.10;99.90;;;;;;5034682;28;20415;-61
2022/07/07 09:42:32;;;;;;;4.07;0.85;;;17.20;99.90;;;;;;5012302;28;20381;-59
2022/07/07 09:45:02;;;;;;;3.33;1.02;;;17.70;99.90;;;;;;5032823;28;20096;-60
2022/07/07 09:47:29;;;;;;;;;;;18.20;99.90;;;;;;5030653;28;20049;-60
2022/07/07 09:50:12;;;;;;;5.28;1.10;;;18.30;99.90;;;;;;5033786;28;19917;-61
2022/07/07 09:52:41;;;;;;;2.85;1.08;;;17.90;99.90;;;;;;5027166;28;20046;-60
2022/07/07 09:55:09;;;;;;;2.97;1.17;;;17.50;99.90;;;;;;5043402;28;20042;-61
2022/07/07 09:57:35;;;;;;;2.67;0.80;;;17.20;99.90;;;;;;5012642;28;20073;-61
2022/07/07 10:00:03;;;;;;;3.70;0.77;;;16.90;99.90;;;;;;5012921;28;20076;-60
2022/07/07 10:02:29;;;;;;;7.93;1.38;;;16.90;99.90;;;;;;5012409;28;20046;-61
2022/07/07 10:04:57;;;;;;;2.97;1.10;;;17.00;99.90;;;;;;5014063;28;20096;-60
2022/07/07 10:07:29;;;;;;;5.50;1.40;;;17.30;99.90;;;;;;5013764;28;20045;-61
2022/07/07 10:09:59;;;;;;;3.97;1.27;;;17.80;99.90;;;;;;5005729;28;20074;-61
2022/07/07 10:12:28;;;;;;;3.95;1.00;;;18.50;99.90;;;;;;4994868;28;20038;-61
2022/07/07 10:14:58;;;;;;;4.30;0.80;;;19.10;99.90;;;;;;4993710;28;20038;-62
2022/07/07 10:17:26;;;;;;;6.15;1.23;;;19.20;99.90;;;;;;4991081;28;20116;-61
2022/07/07 10:19:53;;;;;;;7.30;1.90;;;18.90;99.90;;;;;;4992777;28;20472;-61
2022/07/07 10:22:21;;;;;;;5.63;1.42;;;18.20;99.90;;;;;;4991819;28;20085;-60
2022/07/07 10:24:47;;;;;;;3.97;1.10;;;17.70;99.90;;;;;;4992951;28;20396;-61
2022/07/07 10:27:15;;;;;;;5.32;1.30;;;17.30;99.90;;;;;;4992730;28;20107;-60
2022/07/07 10:29:46;;;;;;;6.18;1.60;;;17.00;99.90;;;;;;4992828;28;20069;-60
2022/07/07 10:32:18;;;;;;;3.50;1.48;;;16.90;99.90;;;;;;4992844;28;20045;-61
2022/07/07 10:34:56;;;;;;;5.60;1.80;;;17.00;99.90;;;;;;5012841;28;20502;-60
2022/07/07 10:37:24;;;;;;;9.95;1.80;;;17.20;99.90;;;;;;5031795;28;20120;-62
2022/07/07 10:39:56;;;;;;;9.75;1.95;;;17.20;99.90;;;;;;5019742;28;20034;-61
2022/07/07 10:42:30;;;;;;;10.38;2.03;;;16.90;99.90;;;;;;5011987;28;20049;-62
2022/07/07 10:44:58;;;;;;;15.10;2.90;;;16.80;99.90;;;;;;4995456;28;20041;-62
2022/07/07 10:47:24;;;;;;;9.77;2.47;;;16.60;99.90;;;;;;4993129;28;20038;-61
2022/07/07 10:49:52;;;;;;;11.40;2.28;;;16.60;99.90;;;;;;5012843;28;20050;-60
2022/07/07 10:52:22;;;;;;;14.23;2.33;;;16.60;99.90;;;;;;5026242;28;20523;-61
2022/07/07 10:54:50;;;;;;;10.10;2.50;;;16.80;99.90;;;;;;5031321;28;20102;-62
2022/07/07 10:57:18;;;;;;;10.07;1.77;;;17.10;99.90;;;;;;5031270;28;20512;-61
2022/07/07 10:59:56;;;;;;;10.93;2.35;;;17.30;99.90;;;;;;5015069;28;20041;-61
2022/07/07 11:02:38;;;;;;;7.95;2.35;;;17.50;99.90;;;;;;5014418;28;20072;-63
2022/07/07 11:05:13;;;;;;;15.88;3.85;;;17.60;99.90;;;;;;5014778;28;20037;-61
2022/07/07 11:07:40;;;;;;;11.35;2.50;;;17.50;99.90;;;;;;5031335;28;20141;-61
2022/07/07 11:10:13;;;;;;;11.75;2.65;;;17.30;99.90;;;;;;5022645;28;20034;-62
2022/07/07 11:12:52;;;;;;;11.32;3.45;;;17.00;99.90;;;;;;4995129;28;20060;-61
2022/07/07 11:15:21;;;;;;;13.05;3.30;;;17.00;99.90;;;;;;5012283;28;20045;-61
2022/07/07 11:17:52;;;;;;;14.38;2.90;;;17.00;99.90;;;;;;5010281;28;20068;-62
2022/07/07 11:20:20;;;;;;;12.27;2.38;;;17.00;99.90;;;;;;5011208;28;20092;-61
2022/07/07 11:22:52;;;;;;;9.52;2.60;;;17.10;99.90;;;;;;5011048;28;20073;-61
2022/07/07 11:25:20;;;;;;;11.07;2.72;;;17.20;99.90;;;;;;5011343;28;20388;-63
2022/07/07 11:27:50;;;;;;;9.43;2.13;;;17.20;99.90;;;;;;5016657;28;20052;-62
2022/07/07 11:30:21;;;;;;;10.93;2.50;;;17.30;99.90;;;;;;5014376;28;20037;-62
2022/07/07 11:32:47;;;;;;;12.27;2.45;;;17.30;99.90;;;;;;5030271;28;20045;-62
2022/07/07 11:35:14;;;;;;;8.25;2.22;;;17.40;99.90;;;;;;5031909;28;20041;-61
2022/07/07 11:37:43;;;;;;;11.10;2.28;;;17.50;99.90;;;;;;5031855;28;20037;-61
2022/07/07 11:40:14;;;;;;;11.55;2.55;;;17.60;99.90;;;;;;5030735;28;20034;-62
2022/07/07 11:42:42;;;;;;;8.77;2.58;;;17.70;99.90;;;;;;5030730;28;20395;-61
2022/07/07 11:45:30;;;;;;;10.43;2.42;;;17.90;99.90;;;;;;5030482;28;20120;-61
2022/07/07 11:48:07;;;;;;;9.35;2.75;;;18.00;99.90;;;;;;5031753;28;20052;-61
2022/07/07 11:50:35;;;;;;;14.13;2.30;;;18.20;99.90;;;;;;5031897;28;20056;-61
2022/07/07 11:53:02;;;;;;;5.63;1.90;;;18.40;99.90;;;;;;5031880;28;20573;-61
2022/07/07 11:55:29;;;;;;;9.88;1.77;;;18.60;99.90;;;;;;5030477;28;20521;-62
2022/07/07 12:01:33;;;;;;;8.07;1.70;;;18.40;99.90;;;;;;5005807;28;20111;-62
2022/07/07 12:04:00;;;;;;;;;;;18.20;99.90;;;;;;4995844;28;20058;-62
2022/07/07 12:06:27;;;;;;;9.32;1.58;;;18.30;99.90;;;;;;4975942;28;20061;-62
2022/07/07 12:08:56;;;;;;;11.48;2.13;;;18.30;99.90;;;;;;5011514;28;20420;-61
2022/07/07 12:11:22;;;;;;;10.38;1.85;;;18.30;99.90;;;;;;5010662;28;20468;-62
2022/07/07 12:13:50;;;;;;;6.97;1.95;;;18.30;99.90;;;;;;5012669;28;20077;-60
2022/07/07 12:16:16;;;;;;;9.70;2.05;;;18.20;99.90;;;;;;4999898;28;20042;-61
2022/07/07 12:18:42;;;;;;;6.05;1.73;;;18.20;99.90;;;;;;4991692;28;20669;-62
2022/07/07 12:21:13;;;;;;;11.05;2.42;;;18.20;99.90;;;;;;4991726;28;20038;-62
2022/07/07 12:23:43;;;;;;;6.70;1.60;;;18.30;99.90;;;;;;4991768;28;20038;-62
2022/07/07 12:26:17;;;;;;;8.65;2.17;;;18.30;99.90;;;;;;4992965;28;20069;-62
2022/07/07 12:28:44;;;;;;;9.63;2.13;;;18.20;99.90;;;;;;5018681;28;20491;-62
2022/07/07 12:31:19;;;;;;;11.63;2.50;;;18.00;99.90;;;;;;5014601;28;20042;-61
2022/07/07 12:33:46;;;;;;;8.73;2.60;;;18.00;99.90;;;;;;5015898;28;20388;-62
2022/07/07 12:36:24;;;;;;;15.10;3.15;;;18.00;99.90;;;;;;5012425;28;20044;-62
2022/07/07 12:38:58;;;;;;;13.82;2.70;;;18.00;99.90;;;;;;5011159;28;20085;-62
2022/07/07 12:41:29;;;;;;;7.45;2.38;;;17.90;99.90;;;;;;5009134;28;20411;-62
2022/07/07 12:44:17;;;;;;;9.10;2.53;;;17.80;99.90;;;;;;4994867;28;20049;-62
2022/07/07 12:46:44;;;;;;;11.85;2.78;;;17.70;99.90;;;;;;5015113;28;20165;-63
2022/07/07 12:49:11;;;;;;;13.20;3.08;;;17.60;99.90;;;;;;5016053;28;20104;-62
2022/07/07 12:51:40;;;;;;;13.52;3.00;;;17.60;99.90;;;;;;5014918;28;20041;-62